sensor_id;sensor_type;location;lat;lon;timestamp;P1;durP1;ratioP1;P2;durP2;ratioP2
25175;SDS011;13135;55.166;61.286;2022-08-21T00:02:44;17.30;;;13.65;;
25175;SDS011;13135;55.166;61.286;2022-08-21T00:05:24;21.10;;;13.87;;
25175;SDS011;13135;55.166;61.286;2022-08-21T00:08:08;17.77;;;13.80;;
25175;SDS011;13135;55.166;61.286;2022-08-21T00:10:52;15.75;;;13.18;;
25175;SDS011;13135;55.166;61.286;2022-08-21T00:13:37;16.58;;;13.57;;
25175;SDS011;13135;55.166;61.286;2022-08-21T00:16:22;16.10;;;13.30;;
25175;SDS011;13135;55.166;61.286;2022-08-21T00:19:07;18.93;;;13.77;;
25175;SDS011;13135;55.166;61.286;2022-08-21T00:21:53;16.10;;;13.30;;
25175;SDS011;13135;55.166;61.286;2022-08-21T00:24:39;18.85;;;14.02;;
25175;SDS011;13135;55.166;61.286;2022-08-21T00:27:23;16.20;;;13.25;;
25175;SDS011;13135;55.166;61.286;2022-08-21T00:30:07;15.15;;;13.10;;
25175;SDS011;13135;55.166;61.286;2022-08-21T00:32:53;15.40;;;12.70;;
25175;SDS011;13135;55.166;61.286;2022-08-21T00:35:39;16.08;;;13.55;;
25175;SDS011;13135;55.166;61.286;2022-08-21T00:38:25;16.77;;;13.55;;
25175;SDS011;13135;55.166;61.286;2022-08-21T00:41:09;17.45;;;14.23;;
25175;SDS011;13135;55.166;61.286;2022-08-21T00:43:51;17.60;;;12.90;;
25175;SDS011;13135;55.166;61.286;2022-08-21T00:46:36;17.23;;;13.80;;
25175;SDS011;13135;55.166;61.286;2022-08-21T00:49:20;17.08;;;13.23;;
25175;SDS011;13135;55.166;61.286;2022-08-21T00:52:06;17.33;;;12.37;;
25175;SDS011;13135;55.166;61.286;2022-08-21T00:54:50;16.77;;;12.98;;
25175;SDS011;13135;55.166;61.286;2022-08-21T00:57:39;17.50;;;13.60;;
25175;SDS011;13135;55.166;61.286;2022-08-21T01:00:25;17.00;;;13.62;;
25175;SDS011;13135;55.166;61.286;2022-08-21T01:03:10;16.95;;;13.23;;
25175;SDS011;13135;55.166;61.286;2022-08-21T01:05:52;20.13;;;14.60;;
25175;SDS011;13135;55.166;61.286;2022-08-21T01:08:37;18.15;;;14.15;;
25175;SDS011;13135;55.166;61.286;2022-08-21T01:11:22;17.17;;;13.80;;
25175;SDS011;13135;55.166;61.286;2022-08-21T01:14:07;19.55;;;13.60;;
25175;SDS011;13135;55.166;61.286;2022-08-21T01:16:51;16.17;;;13.05;;
25175;SDS011;13135;55.166;61.286;2022-08-21T01:19:36;15.97;;;12.47;;
25175;SDS011;13135;55.166;61.286;2022-08-21T01:22:26;17.02;;;12.93;;
25175;SDS011;13135;55.166;61.286;2022-08-21T01:25:10;17.02;;;13.82;;
25175;SDS011;13135;55.166;61.286;2022-08-21T01:27:54;17.98;;;13.48;;
25175;SDS011;13135;55.166;61.286;2022-08-21T01:30:39;21.13;;;13.60;;
25175;SDS011;13135;55.166;61.286;2022-08-21T01:33:24;14.75;;;12.77;;
25175;SDS011;13135;55.166;61.286;2022-08-21T01:36:09;17.23;;;12.97;;
25175;SDS011;13135;55.166;61.286;2022-08-21T01:38:54;15.38;;;12.68;;
25175;SDS011;13135;55.166;61.286;2022-08-21T01:41:38;17.00;;;13.00;;
25175;SDS011;13135;55.166;61.286;2022-08-21T01:44:24;17.00;;;13.00;;
25175;SDS011;13135;55.166;61.286;2022-08-21T01:47:11;17.97;;;12.60;;
25175;SDS011;13135;55.166;61.286;2022-08-21T01:49:55;15.93;;;12.83;;
25175;SDS011;13135;55.166;61.286;2022-08-21T01:52:39;15.33;;;12.57;;
25175;SDS011;13135;55.166;61.286;2022-08-21T01:55:24;17.80;;;13.50;;
25175;SDS011;13135;55.166;61.286;2022-08-21T01:58:09;20.42;;;12.80;;
25175;SDS011;13135;55.166;61.286;2022-08-21T02:00:54;16.20;;;13.57;;
25175;SDS011;13135;55.166;61.286;2022-08-21T02:03:40;16.17;;;13.10;;
25175;SDS011;13135;55.166;61.286;2022-08-21T02:06:23;16.93;;;12.33;;
25175;SDS011;13135;55.166;61.286;2022-08-21T02:09:09;16.85;;;12.40;;
25175;SDS011;13135;55.166;61.286;2022-08-21T02:11:53;15.67;;;12.87;;
25175;SDS011;13135;55.166;61.286;2022-08-21T02:14:38;18.27;;;12.87;;
25175;SDS011;13135;55.166;61.286;2022-08-21T02:17:23;19.73;;;12.80;;
25175;SDS011;13135;55.166;61.286;2022-08-21T02:20:08;17.93;;;13.07;;
25175;SDS011;13135;55.166;61.286;2022-08-21T02:22:53;17.97;;;12.83;;
25175;SDS011;13135;55.166;61.286;2022-08-21T02:25:38;15.30;;;12.83;;
25175;SDS011;13135;55.166;61.286;2022-08-21T02:28:22;15.87;;;12.63;;
25175;SDS011;13135;55.166;61.286;2022-08-21T02:31:07;15.60;;;11.53;;
25175;SDS011;13135;55.166;61.286;2022-08-21T02:33:52;15.90;;;11.87;;
25175;SDS011;13135;55.166;61.286;2022-08-21T02:36:36;14.13;;;11.37;;
25175;SDS011;13135;55.166;61.286;2022-08-21T02:39:20;16.27;;;12.17;;
25175;SDS011;13135;55.166;61.286;2022-08-21T02:42:06;14.13;;;11.07;;
25175;SDS011;13135;55.166;61.286;2022-08-21T02:44:51;14.53;;;11.77;;
25175;SDS011;13135;55.166;61.286;2022-08-21T02:47:35;15.07;;;11.90;;
25175;SDS011;13135;55.166;61.286;2022-08-21T02:50:21;14.57;;;10.77;;
25175;SDS011;13135;55.166;61.286;2022-08-21T02:53:06;14.67;;;11.00;;
25175;SDS011;13135;55.166;61.286;2022-08-21T02:55:50;15.07;;;10.80;;
25175;SDS011;13135;55.166;61.286;2022-08-21T02:58:38;12.67;;;10.63;;
25175;SDS011;13135;55.166;61.286;2022-08-21T03:01:20;11.55;;;9.45;;
25175;SDS011;13135;55.166;61.286;2022-08-21T03:04:05;11.98;;;9.77;;
25175;SDS011;13135;55.166;61.286;2022-08-21T03:06:50;11.67;;;10.00;;
25175;SDS011;13135;55.166;61.286;2022-08-21T03:09:35;12.97;;;10.23;;
25175;SDS011;13135;55.166;61.286;2022-08-21T03:12:20;13.65;;;9.27;;
25175;SDS011;13135;55.166;61.286;2022-08-21T03:15:05;11.20;;;9.30;;
25175;SDS011;13135;55.166;61.286;2022-08-21T03:17:50;12.05;;;9.60;;
25175;SDS011;13135;55.166;61.286;2022-08-21T03:20:34;13.27;;;9.50;;
25175;SDS011;13135;55.166;61.286;2022-08-21T03:23:18;17.90;;;12.27;;
25175;SDS011;13135;55.166;61.286;2022-08-21T03:26:02;15.83;;;11.67;;
25175;SDS011;13135;55.166;61.286;2022-08-21T03:28:47;13.27;;;10.20;;
25175;SDS011;13135;55.166;61.286;2022-08-21T03:31:31;12.63;;;9.20;;
25175;SDS011;13135;55.166;61.286;2022-08-21T03:34:15;12.93;;;9.02;;
25175;SDS011;13135;55.166;61.286;2022-08-21T03:37:00;15.10;;;9.45;;
25175;SDS011;13135;55.166;61.286;2022-08-21T03:39:45;13.70;;;8.60;;
25175;SDS011;13135;55.166;61.286;2022-08-21T03:42:30;10.87;;;8.20;;
25175;SDS011;13135;55.166;61.286;2022-08-21T03:45:15;12.27;;;8.63;;
25175;SDS011;13135;55.166;61.286;2022-08-21T03:48:02;11.70;;;8.30;;
25175;SDS011;13135;55.166;61.286;2022-08-21T03:50:46;10.70;;;7.72;;
25175;SDS011;13135;55.166;61.286;2022-08-21T03:53:31;9.73;;;7.40;;
25175;SDS011;13135;55.166;61.286;2022-08-21T03:56:16;9.07;;;7.45;;
25175;SDS011;13135;55.166;61.286;2022-08-21T03:59:01;12.52;;;7.00;;
25175;SDS011;13135;55.166;61.286;2022-08-21T04:01:52;9.57;;;7.00;;
25175;SDS011;13135;55.166;61.286;2022-08-21T04:04:40;10.10;;;6.97;;
25175;SDS011;13135;55.166;61.286;2022-08-21T04:07:25;9.83;;;7.07;;
25175;SDS011;13135;55.166;61.286;2022-08-21T04:10:10;7.40;;;6.18;;
25175;SDS011;13135;55.166;61.286;2022-08-21T04:12:55;8.73;;;6.63;;
25175;SDS011;13135;55.166;61.286;2022-08-21T04:15:40;8.95;;;6.43;;
25175;SDS011;13135;55.166;61.286;2022-08-21T04:18:21;7.27;;;5.73;;
25175;SDS011;13135;55.166;61.286;2022-08-21T04:21:05;8.90;;;6.05;;
25175;SDS011;13135;55.166;61.286;2022-08-21T04:23:50;8.65;;;6.50;;
25175;SDS011;13135;55.166;61.286;2022-08-21T04:26:36;7.28;;;5.72;;
25175;SDS011;13135;55.166;61.286;2022-08-21T04:29:20;7.43;;;4.82;;
25175;SDS011;13135;55.166;61.286;2022-08-21T04:32:05;9.27;;;4.97;;
25175;SDS011;13135;55.166;61.286;2022-08-21T04:34:57;5.30;;;4.50;;
25175;SDS011;13135;55.166;61.286;2022-08-21T04:37:45;6.97;;;4.65;;
25175;SDS011;13135;55.166;61.286;2022-08-21T04:40:30;7.32;;;4.43;;
25175;SDS011;13135;55.166;61.286;2022-08-21T04:43:15;5.60;;;4.62;;
25175;SDS011;13135;55.166;61.286;2022-08-21T04:45:59;6.20;;;4.40;;
25175;SDS011;13135;55.166;61.286;2022-08-21T04:48:43;7.37;;;4.55;;
25175;SDS011;13135;55.166;61.286;2022-08-21T04:51:29;7.80;;;4.62;;
25175;SDS011;13135;55.166;61.286;2022-08-21T04:54:14;7.30;;;4.62;;
25175;SDS011;13135;55.166;61.286;2022-08-21T04:57:00;6.55;;;4.25;;
25175;SDS011;13135;55.166;61.286;2022-08-21T04:59:45;5.37;;;4.40;;
25175;SDS011;13135;55.166;61.286;2022-08-21T05:02:30;10.55;;;4.40;;
25175;SDS011;13135;55.166;61.286;2022-08-21T05:05:15;5.93;;;4.35;;
25175;SDS011;13135;55.166;61.286;2022-08-21T05:08:00;5.00;;;4.20;;
25175;SDS011;13135;55.166;61.286;2022-08-21T05:10:50;6.85;;;3.80;;
25175;SDS011;13135;55.166;61.286;2022-08-21T05:13:35;5.18;;;4.20;;
25175;SDS011;13135;55.166;61.286;2022-08-21T05:16:20;6.50;;;4.57;;
25175;SDS011;13135;55.166;61.286;2022-08-21T05:19:06;7.75;;;4.03;;
25175;SDS011;13135;55.166;61.286;2022-08-21T05:21:50;5.90;;;3.50;;
25175;SDS011;13135;55.166;61.286;2022-08-21T05:24:35;4.60;;;3.22;;
25175;SDS011;13135;55.166;61.286;2022-08-21T05:27:20;6.57;;;3.80;;
25175;SDS011;13135;55.166;61.286;2022-08-21T05:30:06;5.28;;;3.03;;
25175;SDS011;13135;55.166;61.286;2022-08-21T05:32:56;4.62;;;2.78;;
25175;SDS011;13135;55.166;61.286;2022-08-21T05:35:40;4.03;;;2.95;;
25175;SDS011;13135;55.166;61.286;2022-08-21T05:38:24;8.63;;;3.00;;
25175;SDS011;13135;55.166;61.286;2022-08-21T05:41:07;3.42;;;3.00;;
25175;SDS011;13135;55.166;61.286;2022-08-21T05:43:52;5.22;;;3.28;;
25175;SDS011;13135;55.166;61.286;2022-08-21T05:46:34;3.97;;;2.80;;
25175;SDS011;13135;55.166;61.286;2022-08-21T05:49:18;3.20;;;2.65;;
25175;SDS011;13135;55.166;61.286;2022-08-21T05:52:02;4.60;;;2.70;;
25175;SDS011;13135;55.166;61.286;2022-08-21T05:54:52;3.22;;;2.60;;
25175;SDS011;13135;55.166;61.286;2022-08-21T05:57:37;3.67;;;3.00;;
25175;SDS011;13135;55.166;61.286;2022-08-21T06:00:22;3.50;;;2.70;;
25175;SDS011;13135;55.166;61.286;2022-08-21T06:03:12;4.15;;;2.90;;
25175;SDS011;13135;55.166;61.286;2022-08-21T06:05:57;3.55;;;2.70;;
25175;SDS011;13135;55.166;61.286;2022-08-21T06:08:41;3.85;;;2.70;;
25175;SDS011;13135;55.166;61.286;2022-08-21T06:11:26;5.37;;;2.80;;
25175;SDS011;13135;55.166;61.286;2022-08-21T06:14:14;4.60;;;2.72;;
25175;SDS011;13135;55.166;61.286;2022-08-21T06:17:09;4.95;;;2.95;;
25175;SDS011;13135;55.166;61.286;2022-08-21T06:19:55;3.50;;;2.55;;
25175;SDS011;13135;55.166;61.286;2022-08-21T06:22:38;5.40;;;2.40;;
25175;SDS011;13135;55.166;61.286;2022-08-21T06:25:23;3.50;;;2.25;;
25175;SDS011;13135;55.166;61.286;2022-08-21T06:28:10;3.03;;;2.20;;
25175;SDS011;13135;55.166;61.286;2022-08-21T06:30:54;2.92;;;2.30;;
25175;SDS011;13135;55.166;61.286;2022-08-21T06:33:40;4.68;;;3.25;;
25175;SDS011;13135;55.166;61.286;2022-08-21T06:36:26;5.37;;;3.30;;
25175;SDS011;13135;55.166;61.286;2022-08-21T06:39:11;3.62;;;2.12;;
25175;SDS011;13135;55.166;61.286;2022-08-21T06:41:56;4.72;;;2.20;;
25175;SDS011;13135;55.166;61.286;2022-08-21T06:44:41;2.67;;;2.10;;
25175;SDS011;13135;55.166;61.286;2022-08-21T06:47:26;4.20;;;2.30;;
25175;SDS011;13135;55.166;61.286;2022-08-21T06:50:11;2.78;;;1.83;;
25175;SDS011;13135;55.166;61.286;2022-08-21T06:52:58;3.37;;;1.98;;
25175;SDS011;13135;55.166;61.286;2022-08-21T06:55:44;2.60;;;1.80;;
25175;SDS011;13135;55.166;61.286;2022-08-21T06:58:28;3.17;;;1.90;;
25175;SDS011;13135;55.166;61.286;2022-08-21T07:01:14;2.72;;;2.10;;
25175;SDS011;13135;55.166;61.286;2022-08-21T07:03:58;3.53;;;2.15;;
25175;SDS011;13135;55.166;61.286;2022-08-21T07:06:44;2.83;;;1.90;;
25175;SDS011;13135;55.166;61.286;2022-08-21T07:09:29;2.47;;;1.83;;
25175;SDS011;13135;55.166;61.286;2022-08-21T07:12:14;2.50;;;2.00;;
25175;SDS011;13135;55.166;61.286;2022-08-21T07:15:02;3.42;;;1.95;;
25175;SDS011;13135;55.166;61.286;2022-08-21T07:17:51;3.85;;;2.17;;
25175;SDS011;13135;55.166;61.286;2022-08-21T07:20:36;4.78;;;2.10;;
25175;SDS011;13135;55.166;61.286;2022-08-21T07:23:23;3.55;;;2.03;;
25175;SDS011;13135;55.166;61.286;2022-08-21T07:26:06;3.67;;;2.00;;
25175;SDS011;13135;55.166;61.286;2022-08-21T07:28:50;2.42;;;2.00;;
25175;SDS011;13135;55.166;61.286;2022-08-21T07:31:38;3.25;;;2.08;;
25175;SDS011;13135;55.166;61.286;2022-08-21T07:34:25;2.83;;;2.00;;
25175;SDS011;13135;55.166;61.286;2022-08-21T07:37:10;3.45;;;2.20;;
25175;SDS011;13135;55.166;61.286;2022-08-21T07:39:56;2.92;;;2.15;;
25175;SDS011;13135;55.166;61.286;2022-08-21T07:42:41;4.53;;;2.20;;
25175;SDS011;13135;55.166;61.286;2022-08-21T07:45:25;3.30;;;2.20;;
25175;SDS011;13135;55.166;61.286;2022-08-21T07:48:10;3.90;;;2.12;;
25175;SDS011;13135;55.166;61.286;2022-08-21T07:50:55;4.57;;;2.08;;
25175;SDS011;13135;55.166;61.286;2022-08-21T07:53:40;5.25;;;2.37;;
25175;SDS011;13135;55.166;61.286;2022-08-21T07:56:23;3.97;;;2.08;;
25175;SDS011;13135;55.166;61.286;2022-08-21T07:59:08;2.75;;;2.25;;
25175;SDS011;13135;55.166;61.286;2022-08-21T08:01:55;3.20;;;2.28;;
25175;SDS011;13135;55.166;61.286;2022-08-21T08:04:40;3.42;;;1.98;;
25175;SDS011;13135;55.166;61.286;2022-08-21T08:07:24;2.37;;;1.98;;
25175;SDS011;13135;55.166;61.286;2022-08-21T08:10:10;3.45;;;2.58;;
25175;SDS011;13135;55.166;61.286;2022-08-21T08:12:55;2.90;;;1.95;;
25175;SDS011;13135;55.166;61.286;2022-08-21T08:15:39;2.85;;;2.08;;
25175;SDS011;13135;55.166;61.286;2022-08-21T08:18:24;3.08;;;2.20;;
25175;SDS011;13135;55.166;61.286;2022-08-21T08:21:09;2.58;;;2.00;;
25175;SDS011;13135;55.166;61.286;2022-08-21T08:23:54;3.22;;;2.22;;
25175;SDS011;13135;55.166;61.286;2022-08-21T08:26:38;4.82;;;2.33;;
25175;SDS011;13135;55.166;61.286;2022-08-21T08:29:23;3.20;;;1.85;;
25175;SDS011;13135;55.166;61.286;2022-08-21T08:32:08;4.55;;;2.20;;
25175;SDS011;13135;55.166;61.286;2022-08-21T08:34:55;8.27;;;5.80;;
25175;SDS011;13135;55.166;61.286;2022-08-21T08:37:45;17.23;;;14.98;;
25175;SDS011;13135;55.166;61.286;2022-08-21T08:40:31;4.12;;;2.67;;
25175;SDS011;13135;55.166;61.286;2022-08-21T08:43:15;4.80;;;2.95;;
25175;SDS011;13135;55.166;61.286;2022-08-21T08:46:01;4.10;;;2.67;;
25175;SDS011;13135;55.166;61.286;2022-08-21T08:48:47;4.55;;;2.87;;
25175;SDS011;13135;55.166;61.286;2022-08-21T08:51:36;4.30;;;2.50;;
25175;SDS011;13135;55.166;61.286;2022-08-21T08:54:35;3.65;;;2.53;;
25175;SDS011;13135;55.166;61.286;2022-08-21T08:57:19;6.00;;;2.50;;
25175;SDS011;13135;55.166;61.286;2022-08-21T09:00:05;3.50;;;2.58;;
25175;SDS011;13135;55.166;61.286;2022-08-21T09:02:51;3.70;;;2.40;;
25175;SDS011;13135;55.166;61.286;2022-08-21T09:05:40;3.30;;;2.05;;
25175;SDS011;13135;55.166;61.286;2022-08-21T09:08:29;3.55;;;2.45;;
25175;SDS011;13135;55.166;61.286;2022-08-21T09:11:15;3.85;;;2.70;;
25175;SDS011;13135;55.166;61.286;2022-08-21T09:14:17;3.53;;;2.53;;
25175;SDS011;13135;55.166;61.286;2022-08-21T09:17:04;2.95;;;2.25;;
25175;SDS011;13135;55.166;61.286;2022-08-21T09:19:56;3.47;;;2.67;;
25175;SDS011;13135;55.166;61.286;2022-08-21T09:22:58;3.60;;;2.42;;
25175;SDS011;13135;55.166;61.286;2022-08-21T09:25:42;4.68;;;2.50;;
25175;SDS011;13135;55.166;61.286;2022-08-21T09:28:34;3.05;;;2.30;;
25175;SDS011;13135;55.166;61.286;2022-08-21T09:31:22;3.72;;;2.53;;
25175;SDS011;13135;55.166;61.286;2022-08-21T09:34:10;2.75;;;2.15;;
25175;SDS011;13135;55.166;61.286;2022-08-21T09:36:54;7.90;;;5.70;;
25175;SDS011;13135;55.166;61.286;2022-08-21T09:39:39;10.38;;;8.13;;
25175;SDS011;13135;55.166;61.286;2022-08-21T09:42:25;3.95;;;2.67;;
25175;SDS011;13135;55.166;61.286;2022-08-21T09:45:10;3.08;;;2.10;;
25175;SDS011;13135;55.166;61.286;2022-08-21T09:47:56;3.17;;;2.17;;
25175;SDS011;13135;55.166;61.286;2022-08-21T09:50:42;2.87;;;2.25;;
25175;SDS011;13135;55.166;61.286;2022-08-21T09:53:27;3.00;;;2.45;;
25175;SDS011;13135;55.166;61.286;2022-08-21T09:56:16;4.43;;;2.47;;
25175;SDS011;13135;55.166;61.286;2022-08-21T09:59:00;3.62;;;2.53;;
25175;SDS011;13135;55.166;61.286;2022-08-21T10:01:47;2.80;;;2.40;;
25175;SDS011;13135;55.166;61.286;2022-08-21T10:04:32;3.33;;;2.30;;
25175;SDS011;13135;55.166;61.286;2022-08-21T10:07:15;4.20;;;2.22;;
25175;SDS011;13135;55.166;61.286;2022-08-21T10:10:04;3.85;;;2.10;;
25175;SDS011;13135;55.166;61.286;2022-08-21T10:12:58;4.95;;;1.80;;
25175;SDS011;13135;55.166;61.286;2022-08-21T10:15:51;4.12;;;2.50;;
25175;SDS011;13135;55.166;61.286;2022-08-21T10:18:35;3.17;;;2.30;;
25175;SDS011;13135;55.166;61.286;2022-08-21T10:21:29;5.65;;;2.53;;
25175;SDS011;13135;55.166;61.286;2022-08-21T10:24:22;3.28;;;2.40;;
25175;SDS011;13135;55.166;61.286;2022-08-21T10:27:10;4.45;;;2.33;;
25175;SDS011;13135;55.166;61.286;2022-08-21T10:30:03;3.67;;;2.47;;
25175;SDS011;13135;55.166;61.286;2022-08-21T10:32:57;3.22;;;2.58;;
25175;SDS011;13135;55.166;61.286;2022-08-21T10:35:47;4.60;;;3.00;;
25175;SDS011;13135;55.166;61.286;2022-08-21T10:41:39;5.87;;;2.90;;
25175;SDS011;13135;55.166;61.286;2022-08-21T10:44:30;5.00;;;2.65;;
25175;SDS011;13135;55.166;61.286;2022-08-21T10:47:20;4.00;;;3.03;;
25175;SDS011;13135;55.166;61.286;2022-08-21T10:50:23;4.45;;;2.83;;
25175;SDS011;13135;55.166;61.286;2022-08-21T10:53:07;5.28;;;3.25;;
25175;SDS011;13135;55.166;61.286;2022-08-21T10:56:12;4.60;;;3.03;;
25175;SDS011;13135;55.166;61.286;2022-08-21T10:59:00;5.55;;;2.87;;
25175;SDS011;13135;55.166;61.286;2022-08-21T11:02:00;4.00;;;2.67;;
25175;SDS011;13135;55.166;61.286;2022-08-21T11:04:48;4.78;;;3.10;;
25175;SDS011;13135;55.166;61.286;2022-08-21T11:07:33;4.00;;;2.60;;
25175;SDS011;13135;55.166;61.286;2022-08-21T11:10:27;5.97;;;2.87;;
25175;SDS011;13135;55.166;61.286;2022-08-21T11:13:24;4.47;;;2.87;;
25175;SDS011;13135;55.166;61.286;2022-08-21T11:16:10;2.97;;;2.40;;
25175;SDS011;13135;55.166;61.286;2022-08-21T11:18:57;4.22;;;2.58;;
25175;SDS011;13135;55.166;61.286;2022-08-21T11:21:50;4.47;;;3.00;;
25175;SDS011;13135;55.166;61.286;2022-08-21T11:25:00;3.80;;;3.00;;
25175;SDS011;13135;55.166;61.286;2022-08-21T11:27:52;4.18;;;3.40;;
25175;SDS011;13135;55.166;61.286;2022-08-21T11:30:51;4.25;;;2.83;;
25175;SDS011;13135;55.166;61.286;2022-08-21T11:33:29;7.53;;;3.10;;
25175;SDS011;13135;55.166;61.286;2022-08-21T11:36:15;4.43;;;3.10;;
25175;SDS011;13135;55.166;61.286;2022-08-21T11:42:04;6.82;;;3.20;;
25175;SDS011;13135;55.166;61.286;2022-08-21T11:44:54;5.53;;;2.72;;
25175;SDS011;13135;55.166;61.286;2022-08-21T11:47:45;5.30;;;3.50;;
25175;SDS011;13135;55.166;61.286;2022-08-21T11:50:27;9.95;;;4.90;;
25175;SDS011;13135;55.166;61.286;2022-08-21T11:53:12;3.65;;;2.95;;
25175;SDS011;13135;55.166;61.286;2022-08-21T11:56:01;4.47;;;2.92;;
25175;SDS011;13135;55.166;61.286;2022-08-21T11:58:56;7.05;;;3.10;;
25175;SDS011;13135;55.166;61.286;2022-08-21T12:01:43;4.55;;;3.00;;
25175;SDS011;13135;55.166;61.286;2022-08-21T12:04:28;4.45;;;2.70;;
25175;SDS011;13135;55.166;61.286;2022-08-21T12:07:16;4.80;;;3.00;;
25175;SDS011;13135;55.166;61.286;2022-08-21T12:10:00;3.87;;;2.72;;
25175;SDS011;13135;55.166;61.286;2022-08-21T12:12:45;3.62;;;3.12;;
25175;SDS011;13135;55.166;61.286;2022-08-21T12:15:30;5.60;;;3.30;;
25175;SDS011;13135;55.166;61.286;2022-08-21T12:18:22;3.75;;;2.85;;
25175;SDS011;13135;55.166;61.286;2022-08-21T12:24:04;5.57;;;2.70;;
25175;SDS011;13135;55.166;61.286;2022-08-21T12:30:03;5.22;;;3.05;;
25175;SDS011;13135;55.166;61.286;2022-08-21T12:32:54;5.37;;;2.90;;
25175;SDS011;13135;55.166;61.286;2022-08-21T12:35:33;5.10;;;2.85;;
25175;SDS011;13135;55.166;61.286;2022-08-21T12:38:23;4.47;;;2.50;;
25175;SDS011;13135;55.166;61.286;2022-08-21T12:41:10;4.10;;;2.30;;
25175;SDS011;13135;55.166;61.286;2022-08-21T12:43:57;4.30;;;2.67;;
25175;SDS011;13135;55.166;61.286;2022-08-21T12:46:51;5.12;;;2.45;;
25175;SDS011;13135;55.166;61.286;2022-08-21T12:49:36;3.85;;;2.80;;
25175;SDS011;13135;55.166;61.286;2022-08-21T12:52:22;4.57;;;2.83;;
25175;SDS011;13135;55.166;61.286;2022-08-21T12:55:06;3.15;;;2.70;;
25175;SDS011;13135;55.166;61.286;2022-08-21T12:57:51;3.78;;;2.65;;
25175;SDS011;13135;55.166;61.286;2022-08-21T13:00:36;6.78;;;5.50;;
25175;SDS011;13135;55.166;61.286;2022-08-21T13:03:21;4.80;;;3.15;;
25175;SDS011;13135;55.166;61.286;2022-08-21T13:06:06;4.87;;;3.10;;
25175;SDS011;13135;55.166;61.286;2022-08-21T13:08:51;4.90;;;2.70;;
25175;SDS011;13135;55.166;61.286;2022-08-21T13:11:36;3.40;;;2.53;;
25175;SDS011;13135;55.166;61.286;2022-08-21T13:14:23;4.65;;;2.90;;
25175;SDS011;13135;55.166;61.286;2022-08-21T13:17:05;3.70;;;2.60;;
25175;SDS011;13135;55.166;61.286;2022-08-21T13:19:57;5.95;;;3.58;;
25175;SDS011;13135;55.166;61.286;2022-08-21T13:22:42;4.10;;;2.70;;
25175;SDS011;13135;55.166;61.286;2022-08-21T13:25:27;3.95;;;2.50;;
25175;SDS011;13135;55.166;61.286;2022-08-21T13:28:09;4.07;;;2.67;;
25175;SDS011;13135;55.166;61.286;2022-08-21T13:30:53;4.85;;;3.05;;
25175;SDS011;13135;55.166;61.286;2022-08-21T13:33:38;3.28;;;2.60;;
25175;SDS011;13135;55.166;61.286;2022-08-21T13:36:24;4.40;;;2.87;;
25175;SDS011;13135;55.166;61.286;2022-08-21T13:39:10;5.35;;;3.00;;
25175;SDS011;13135;55.166;61.286;2022-08-21T13:41:54;6.68;;;3.83;;
25175;SDS011;13135;55.166;61.286;2022-08-21T13:44:40;4.45;;;3.00;;
25175;SDS011;13135;55.166;61.286;2022-08-21T13:47:24;5.32;;;3.30;;
25175;SDS011;13135;55.166;61.286;2022-08-21T13:50:08;4.25;;;3.08;;
25175;SDS011;13135;55.166;61.286;2022-08-21T13:52:57;3.90;;;2.85;;
25175;SDS011;13135;55.166;61.286;2022-08-21T13:55:41;5.12;;;3.25;;
25175;SDS011;13135;55.166;61.286;2022-08-21T13:58:25;6.53;;;3.40;;
25175;SDS011;13135;55.166;61.286;2022-08-21T14:04:03;4.43;;;3.20;;
25175;SDS011;13135;55.166;61.286;2022-08-21T14:06:55;8.55;;;3.92;;
25175;SDS011;13135;55.166;61.286;2022-08-21T14:09:43;6.93;;;3.60;;
25175;SDS011;13135;55.166;61.286;2022-08-21T14:12:28;12.43;;;8.77;;
25175;SDS011;13135;55.166;61.286;2022-08-21T14:15:13;16.67;;;13.62;;
25175;SDS011;13135;55.166;61.286;2022-08-21T14:18:08;7.37;;;5.87;;
25175;SDS011;13135;55.166;61.286;2022-08-21T14:21:04;6.10;;;4.85;;
25175;SDS011;13135;55.166;61.286;2022-08-21T14:23:58;7.10;;;4.03;;
25175;SDS011;13135;55.166;61.286;2022-08-21T14:26:35;6.45;;;3.83;;
25175;SDS011;13135;55.166;61.286;2022-08-21T14:29:19;4.95;;;3.80;;
25175;SDS011;13135;55.166;61.286;2022-08-21T14:32:12;6.30;;;4.55;;
25175;SDS011;13135;55.166;61.286;2022-08-21T14:34:59;8.48;;;4.12;;
25175;SDS011;13135;55.166;61.286;2022-08-21T14:37:44;6.57;;;4.07;;
25175;SDS011;13135;55.166;61.286;2022-08-21T14:40:28;5.07;;;4.20;;
25175;SDS011;13135;55.166;61.286;2022-08-21T14:43:16;6.60;;;3.92;;
25175;SDS011;13135;55.166;61.286;2022-08-21T14:45:59;5.82;;;3.80;;
25175;SDS011;13135;55.166;61.286;2022-08-21T14:48:44;7.05;;;4.15;;
25175;SDS011;13135;55.166;61.286;2022-08-21T14:51:29;8.82;;;3.87;;
25175;SDS011;13135;55.166;61.286;2022-08-21T14:54:13;7.05;;;3.95;;
25175;SDS011;13135;55.166;61.286;2022-08-21T14:57:02;9.85;;;4.10;;
25175;SDS011;13135;55.166;61.286;2022-08-21T14:59:46;26.98;;;21.77;;
25175;SDS011;13135;55.166;61.286;2022-08-21T15:02:30;11.12;;;7.50;;
25175;SDS011;13135;55.166;61.286;2022-08-21T15:05:11;6.07;;;4.70;;
25175;SDS011;13135;55.166;61.286;2022-08-21T15:07:58;6.82;;;3.97;;
25175;SDS011;13135;55.166;61.286;2022-08-21T15:10:43;7.07;;;4.45;;
25175;SDS011;13135;55.166;61.286;2022-08-21T15:13:28;6.82;;;4.53;;
25175;SDS011;13135;55.166;61.286;2022-08-21T15:16:13;6.60;;;4.40;;
25175;SDS011;13135;55.166;61.286;2022-08-21T15:18:57;7.85;;;4.35;;
25175;SDS011;13135;55.166;61.286;2022-08-21T15:21:42;8.48;;;4.53;;
25175;SDS011;13135;55.166;61.286;2022-08-21T15:24:27;7.05;;;4.30;;
25175;SDS011;13135;55.166;61.286;2022-08-21T15:27:11;7.28;;;3.87;;
25175;SDS011;13135;55.166;61.286;2022-08-21T15:29:55;7.32;;;3.72;;
25175;SDS011;13135;55.166;61.286;2022-08-21T15:32:40;5.70;;;3.97;;
25175;SDS011;13135;55.166;61.286;2022-08-21T15:35:22;7.93;;;4.15;;
25175;SDS011;13135;55.166;61.286;2022-08-21T15:38:07;10.32;;;4.10;;
25175;SDS011;13135;55.166;61.286;2022-08-21T15:40:51;8.45;;;4.32;;
25175;SDS011;13135;55.166;61.286;2022-08-21T15:43:40;7.28;;;4.37;;
25175;SDS011;13135;55.166;61.286;2022-08-21T15:46:24;10.60;;;4.65;;
25175;SDS011;13135;55.166;61.286;2022-08-21T15:49:10;7.40;;;4.60;;
25175;SDS011;13135;55.166;61.286;2022-08-21T15:51:55;6.22;;;4.35;;
25175;SDS011;13135;55.166;61.286;2022-08-21T15:54:39;12.25;;;5.05;;
25175;SDS011;13135;55.166;61.286;2022-08-21T15:57:24;7.10;;;4.82;;
25175;SDS011;13135;55.166;61.286;2022-08-21T16:00:11;9.80;;;5.35;;
25175;SDS011;13135;55.166;61.286;2022-08-21T16:02:59;5.87;;;4.70;;
25175;SDS011;13135;55.166;61.286;2022-08-21T16:05:44;10.50;;;5.07;;
25175;SDS011;13135;55.166;61.286;2022-08-21T16:08:29;10.38;;;5.30;;
25175;SDS011;13135;55.166;61.286;2022-08-21T16:11:14;10.95;;;5.12;;
25175;SDS011;13135;55.166;61.286;2022-08-21T16:13:58;11.05;;;5.40;;
25175;SDS011;13135;55.166;61.286;2022-08-21T16:16:42;8.55;;;5.05;;
25175;SDS011;13135;55.166;61.286;2022-08-21T16:19:27;8.70;;;4.90;;
25175;SDS011;13135;55.166;61.286;2022-08-21T16:22:12;8.95;;;5.72;;
25175;SDS011;13135;55.166;61.286;2022-08-21T16:24:59;9.90;;;5.50;;
25175;SDS011;13135;55.166;61.286;2022-08-21T16:27:45;12.02;;;5.93;;
25175;SDS011;13135;55.166;61.286;2022-08-21T16:30:29;16.05;;;10.52;;
25175;SDS011;13135;55.166;61.286;2022-08-21T16:33:24;11.45;;;6.78;;
25175;SDS011;13135;55.166;61.286;2022-08-21T16:36:15;10.63;;;6.55;;